sensor_id;sensor_type;location;lat;lon;timestamp;P1;durP1;ratioP1;P2;durP2;ratioP2
20743;SDS011;56303;52.160;-0.428;2023-04-08T00:00:28;8.40;;;6.57;;
20743;SDS011;56303;52.160;-0.428;2023-04-08T00:02:55;7.70;;;6.37;;
20743;SDS011;56303;52.160;-0.428;2023-04-08T00:05:22;9.80;;;6.40;;
20743;SDS011;56303;52.160;-0.428;2023-04-08T00:07:49;7.37;;;6.10;;
20743;SDS011;56303;52.160;-0.428;2023-04-08T00:10:16;9.13;;;6.50;;
20743;SDS011;56303;52.160;-0.428;2023-04-08T00:12:43;8.43;;;6.53;;
20743;SDS011;56303;52.160;-0.428;2023-04-08T00:15:10;9.80;;;7.13;;
20743;SDS011;56303;52.160;-0.428;2023-04-08T00:17:37;11.90;;;7.63;;
20743;SDS011;56303;52.160;-0.428;2023-04-08T00:20:05;9.17;;;6.47;;
20743;SDS011;56303;52.160;-0.428;2023-04-08T00:22:32;8.53;;;6.60;;
20743;SDS011;56303;52.160;-0.428;2023-04-08T00:24:59;10.53;;;7.53;;
20743;SDS011;56303;52.160;-0.428;2023-04-08T00:27:26;9.37;;;6.57;;
20743;SDS011;56303;52.160;-0.428;2023-04-08T00:29:53;9.77;;;6.60;;
20743;SDS011;56303;52.160;-0.428;2023-04-08T00:32:20;8.13;;;6.63;;
20743;SDS011;56303;52.160;-0.428;2023-04-08T00:34:47;11.30;;;7.67;;
20743;SDS011;56303;52.160;-0.428;2023-04-08T00:37:14;11.67;;;7.50;;
20743;SDS011;56303;52.160;-0.428;2023-04-08T00:39:41;12.60;;;10.27;;
20743;SDS011;56303;52.160;-0.428;2023-04-08T00:42:08;10.37;;;8.73;;
20743;SDS011;56303;52.160;-0.428;2023-04-08T00:44:35;11.03;;;8.30;;
20743;SDS011;56303;52.160;-0.428;2023-04-08T00:47:02;11.93;;;7.57;;
20743;SDS011;56303;52.160;-0.428;2023-04-08T00:49:30;15.60;;;8.40;;
20743;SDS011;56303;52.160;-0.428;2023-04-08T00:51:57;9.00;;;8.03;;
20743;SDS011;56303;52.160;-0.428;2023-04-08T00:54:25;12.67;;;8.93;;
20743;SDS011;56303;52.160;-0.428;2023-04-08T00:56:52;12.13;;;9.37;;
20743;SDS011;56303;52.160;-0.428;2023-04-08T00:59:19;11.97;;;8.27;;
20743;SDS011;56303;52.160;-0.428;2023-04-08T01:04:34;10.50;;;8.70;;
20743;SDS011;56303;52.160;-0.428;2023-04-08T01:07:19;10.50;;;8.53;;
20743;SDS011;56303;52.160;-0.428;2023-04-08T01:09:56;11.17;;;7.33;;
20743;SDS011;56303;52.160;-0.428;2023-04-08T01:12:35;9.70;;;7.10;;
20743;SDS011;56303;52.160;-0.428;2023-04-08T01:15:10;8.10;;;6.47;;
20743;SDS011;56303;52.160;-0.428;2023-04-08T01:17:37;8.83;;;6.17;;
20743;SDS011;56303;52.160;-0.428;2023-04-08T01:20:07;12.27;;;8.57;;
20743;SDS011;56303;52.160;-0.428;2023-04-08T01:27:58;12.40;;;9.87;;
20743;SDS011;56303;52.160;-0.428;2023-04-08T01:30:27;9.20;;;7.17;;
20743;SDS011;56303;52.160;-0.428;2023-04-08T01:32:55;10.90;;;8.10;;
20743;SDS011;56303;52.160;-0.428;2023-04-08T01:35:24;8.23;;;6.40;;
20743;SDS011;56303;52.160;-0.428;2023-04-08T01:37:52;7.37;;;6.40;;
20743;SDS011;56303;52.160;-0.428;2023-04-08T01:40:19;7.33;;;6.53;;
20743;SDS011;56303;52.160;-0.428;2023-04-08T01:42:46;11.53;;;7.77;;
20743;SDS011;56303;52.160;-0.428;2023-04-08T01:45:14;9.60;;;7.23;;
20743;SDS011;56303;52.160;-0.428;2023-04-08T01:47:43;9.30;;;6.50;;
20743;SDS011;56303;52.160;-0.428;2023-04-08T01:50:14;8.50;;;6.90;;
20743;SDS011;56303;52.160;-0.428;2023-04-08T01:52:45;9.47;;;7.10;;
20743;SDS011;56303;52.160;-0.428;2023-04-08T01:55:14;10.40;;;7.60;;
20743;SDS011;56303;52.160;-0.428;2023-04-08T01:57:43;14.37;;;8.83;;
20743;SDS011;56303;52.160;-0.428;2023-04-08T02:00:20;11.37;;;8.97;;
20743;SDS011;56303;52.160;-0.428;2023-04-08T02:02:51;11.17;;;9.30;;
20743;SDS011;56303;52.160;-0.428;2023-04-08T02:05:19;10.10;;;8.10;;
20743;SDS011;56303;52.160;-0.428;2023-04-08T02:07:47;12.90;;;9.27;;
20743;SDS011;56303;52.160;-0.428;2023-04-08T02:10:14;12.73;;;9.97;;
20743;SDS011;56303;52.160;-0.428;2023-04-08T02:12:41;15.43;;;10.03;;
20743;SDS011;56303;52.160;-0.428;2023-04-08T02:15:09;10.07;;;7.87;;
20743;SDS011;56303;52.160;-0.428;2023-04-08T02:17:47;11.03;;;8.00;;
20743;SDS011;56303;52.160;-0.428;2023-04-08T02:20:18;10.87;;;9.13;;
20743;SDS011;56303;52.160;-0.428;2023-04-08T02:25:36;14.60;;;10.93;;
20743;SDS011;56303;52.160;-0.428;2023-04-08T02:28:05;14.63;;;10.37;;
20743;SDS011;56303;52.160;-0.428;2023-04-08T02:30:36;14.17;;;10.50;;
20743;SDS011;56303;52.160;-0.428;2023-04-08T02:33:07;14.70;;;11.20;;
20743;SDS011;56303;52.160;-0.428;2023-04-08T02:35:36;17.50;;;12.70;;
20743;SDS011;56303;52.160;-0.428;2023-04-08T02:38:05;15.63;;;10.57;;
20743;SDS011;56303;52.160;-0.428;2023-04-08T02:40:32;13.57;;;10.87;;
20743;SDS011;56303;52.160;-0.428;2023-04-08T02:43:00;17.53;;;13.13;;
20743;SDS011;56303;52.160;-0.428;2023-04-08T02:45:31;14.13;;;11.10;;
20743;SDS011;56303;52.160;-0.428;2023-04-08T02:48:00;16.70;;;12.77;;
20743;SDS011;56303;52.160;-0.428;2023-04-08T02:50:27;21.00;;;14.40;;
20743;SDS011;56303;52.160;-0.428;2023-04-08T02:52:54;18.70;;;14.47;;
20743;SDS011;56303;52.160;-0.428;2023-04-08T02:55:21;14.50;;;12.07;;
20743;SDS011;56303;52.160;-0.428;2023-04-08T02:57:48;17.40;;;12.17;;
20743;SDS011;56303;52.160;-0.428;2023-04-08T03:00:15;19.77;;;13.33;;
20743;SDS011;56303;52.160;-0.428;2023-04-08T03:02:42;17.03;;;12.80;;
20743;SDS011;56303;52.160;-0.428;2023-04-08T03:05:09;18.80;;;13.67;;
20743;SDS011;56303;52.160;-0.428;2023-04-08T03:07:36;18.03;;;12.47;;
20743;SDS011;56303;52.160;-0.428;2023-04-08T03:10:03;20.20;;;13.23;;
20743;SDS011;56303;52.160;-0.428;2023-04-08T03:12:31;17.93;;;12.47;;
20743;SDS011;56303;52.160;-0.428;2023-04-08T03:14:58;19.83;;;13.20;;
20743;SDS011;56303;52.160;-0.428;2023-04-08T03:17:26;18.23;;;13.20;;
20743;SDS011;56303;52.160;-0.428;2023-04-08T03:19:53;18.67;;;14.07;;
20743;SDS011;56303;52.160;-0.428;2023-04-08T03:22:19;18.93;;;14.07;;
20743;SDS011;56303;52.160;-0.428;2023-04-08T03:24:46;17.87;;;13.73;;
20743;SDS011;56303;52.160;-0.428;2023-04-08T03:27:13;21.93;;;14.30;;
20743;SDS011;56303;52.160;-0.428;2023-04-08T03:29:40;19.70;;;14.13;;
20743;SDS011;56303;52.160;-0.428;2023-04-08T03:32:06;22.93;;;16.33;;
20743;SDS011;56303;52.160;-0.428;2023-04-08T03:34:34;20.00;;;15.77;;
20743;SDS011;56303;52.160;-0.428;2023-04-08T03:37:00;19.00;;;13.90;;
20743;SDS011;56303;52.160;-0.428;2023-04-08T03:39:27;18.60;;;14.07;;
20743;SDS011;56303;52.160;-0.428;2023-04-08T03:41:54;19.23;;;13.00;;
20743;SDS011;56303;52.160;-0.428;2023-04-08T03:44:21;18.30;;;15.10;;
20743;SDS011;56303;52.160;-0.428;2023-04-08T03:46:48;18.47;;;14.23;;
20743;SDS011;56303;52.160;-0.428;2023-04-08T03:49:15;20.33;;;14.03;;
20743;SDS011;56303;52.160;-0.428;2023-04-08T03:51:42;21.27;;;13.97;;
20743;SDS011;56303;52.160;-0.428;2023-04-08T03:54:08;21.30;;;14.10;;
20743;SDS011;56303;52.160;-0.428;2023-04-08T03:56:35;24.50;;;15.77;;
20743;SDS011;56303;52.160;-0.428;2023-04-08T03:59:02;18.97;;;13.47;;
20743;SDS011;56303;52.160;-0.428;2023-04-08T04:01:29;19.67;;;13.57;;
20743;SDS011;56303;52.160;-0.428;2023-04-08T04:03:57;23.33;;;18.13;;
20743;SDS011;56303;52.160;-0.428;2023-04-08T04:06:25;20.73;;;14.03;;
20743;SDS011;56303;52.160;-0.428;2023-04-08T04:08:53;18.70;;;12.07;;
20743;SDS011;56303;52.160;-0.428;2023-04-08T04:11:22;19.30;;;13.53;;
20743;SDS011;56303;52.160;-0.428;2023-04-08T04:13:49;22.40;;;15.33;;
20743;SDS011;56303;52.160;-0.428;2023-04-08T04:16:16;20.00;;;14.43;;
20743;SDS011;56303;52.160;-0.428;2023-04-08T04:18:42;19.53;;;14.93;;
20743;SDS011;56303;52.160;-0.428;2023-04-08T04:21:09;23.63;;;17.03;;
20743;SDS011;56303;52.160;-0.428;2023-04-08T04:23:37;19.60;;;14.40;;
20743;SDS011;56303;52.160;-0.428;2023-04-08T04:26:07;18.43;;;12.13;;
20743;SDS011;56303;52.160;-0.428;2023-04-08T04:28:35;18.17;;;13.40;;
20743;SDS011;56303;52.160;-0.428;2023-04-08T04:31:02;19.33;;;14.33;;
20743;SDS011;56303;52.160;-0.428;2023-04-08T04:33:29;23.63;;;16.60;;
20743;SDS011;56303;52.160;-0.428;2023-04-08T04:35:58;18.37;;;14.07;;
20743;SDS011;56303;52.160;-0.428;2023-04-08T04:38:25;16.53;;;12.90;;
20743;SDS011;56303;52.160;-0.428;2023-04-08T04:40:52;22.93;;;15.20;;
20743;SDS011;56303;52.160;-0.428;2023-04-08T04:43:19;22.03;;;14.57;;
20743;SDS011;56303;52.160;-0.428;2023-04-08T04:45:46;17.90;;;13.30;;
20743;SDS011;56303;52.160;-0.428;2023-04-08T04:48:12;17.97;;;13.03;;
20743;SDS011;56303;52.160;-0.428;2023-04-08T04:50:39;18.70;;;13.23;;
20743;SDS011;56303;52.160;-0.428;2023-04-08T04:53:06;52.57;;;20.77;;
20743;SDS011;56303;52.160;-0.428;2023-04-08T04:55:33;44.97;;;15.47;;
20743;SDS011;56303;52.160;-0.428;2023-04-08T04:58:00;51.87;;;16.87;;
20743;SDS011;56303;52.160;-0.428;2023-04-08T05:00:27;73.50;;;17.83;;
20743;SDS011;56303;52.160;-0.428;2023-04-08T05:02:54;64.43;;;17.13;;
20743;SDS011;56303;52.160;-0.428;2023-04-08T05:05:21;75.33;;;14.77;;
20743;SDS011;56303;52.160;-0.428;2023-04-08T05:07:48;43.23;;;15.37;;
20743;SDS011;56303;52.160;-0.428;2023-04-08T05:10:14;124.30;;;30.43;;
20743;SDS011;56303;52.160;-0.428;2023-04-08T05:12:41;80.23;;;24.27;;
20743;SDS011;56303;52.160;-0.428;2023-04-08T05:15:08;144.43;;;32.73;;
20743;SDS011;56303;52.160;-0.428;2023-04-08T05:17:35;47.83;;;18.50;;
20743;SDS011;56303;52.160;-0.428;2023-04-08T05:20:02;81.93;;;24.07;;
20743;SDS011;56303;52.160;-0.428;2023-04-08T05:22:30;45.53;;;18.87;;
20743;SDS011;56303;52.160;-0.428;2023-04-08T05:24:57;140.57;;;31.07;;
20743;SDS011;56303;52.160;-0.428;2023-04-08T05:27:23;42.80;;;17.37;;
20743;SDS011;56303;52.160;-0.428;2023-04-08T05:29:51;156.43;;;32.80;;
20743;SDS011;56303;52.160;-0.428;2023-04-08T05:32:18;124.23;;;30.03;;
20743;SDS011;56303;52.160;-0.428;2023-04-08T05:34:47;276.87;;;46.03;;
20743;SDS011;56303;52.160;-0.428;2023-04-08T05:37:14;46.93;;;18.37;;
20743;SDS011;56303;52.160;-0.428;2023-04-08T05:39:40;293.30;;;44.97;;
20743;SDS011;56303;52.160;-0.428;2023-04-08T05:42:07;507.73;;;73.77;;
20743;SDS011;56303;52.160;-0.428;2023-04-08T05:44:35;66.07;;;19.87;;
20743;SDS011;56303;52.160;-0.428;2023-04-08T05:47:01;101.83;;;24.20;;
20743;SDS011;56303;52.160;-0.428;2023-04-08T05:49:28;103.33;;;27.43;;
20743;SDS011;56303;52.160;-0.428;2023-04-08T05:51:55;263.73;;;40.57;;
20743;SDS011;56303;52.160;-0.428;2023-04-08T05:54:22;78.37;;;25.00;;
20743;SDS011;56303;52.160;-0.428;2023-04-08T05:56:49;67.77;;;23.23;;
20743;SDS011;56303;52.160;-0.428;2023-04-08T05:59:16;253.23;;;44.77;;
20743;SDS011;56303;52.160;-0.428;2023-04-08T06:01:42;328.60;;;52.30;;
20743;SDS011;56303;52.160;-0.428;2023-04-08T06:04:09;344.73;;;53.27;;
20743;SDS011;56303;52.160;-0.428;2023-04-08T06:06:37;196.83;;;37.57;;
20743;SDS011;56303;52.160;-0.428;2023-04-08T06:09:06;156.70;;;33.33;;
20743;SDS011;56303;52.160;-0.428;2023-04-08T06:11:33;356.67;;;64.00;;
20743;SDS011;56303;52.160;-0.428;2023-04-08T06:14:01;259.93;;;45.37;;
20743;SDS011;56303;52.160;-0.428;2023-04-08T06:16:27;119.43;;;30.87;;
20743;SDS011;56303;52.160;-0.428;2023-04-08T06:18:54;232.70;;;39.47;;
20743;SDS011;56303;52.160;-0.428;2023-04-08T06:21:21;85.80;;;25.43;;
20743;SDS011;56303;52.160;-0.428;2023-04-08T06:23:48;141.00;;;33.60;;
20743;SDS011;56303;52.160;-0.428;2023-04-08T06:26:15;94.13;;;28.00;;
20743;SDS011;56303;52.160;-0.428;2023-04-08T06:28:42;280.23;;;50.67;;
20743;SDS011;56303;52.160;-0.428;2023-04-08T06:31:09;149.03;;;33.70;;
20743;SDS011;56303;52.160;-0.428;2023-04-08T06:33:35;146.77;;;31.63;;
20743;SDS011;56303;52.160;-0.428;2023-04-08T06:36:06;114.80;;;24.47;;
20743;SDS011;56303;52.160;-0.428;2023-04-08T06:38:33;156.03;;;29.57;;
20743;SDS011;56303;52.160;-0.428;2023-04-08T06:41:03;182.20;;;32.30;;
20743;SDS011;56303;52.160;-0.428;2023-04-08T06:43:31;462.10;;;74.70;;
20743;SDS011;56303;52.160;-0.428;2023-04-08T06:45:59;220.37;;;41.83;;
20743;SDS011;56303;52.160;-0.428;2023-04-08T06:48:26;75.63;;;28.10;;
20743;SDS011;56303;52.160;-0.428;2023-04-08T06:50:56;120.33;;;38.50;;
20743;SDS011;56303;52.160;-0.428;2023-04-08T06:53:23;74.27;;;29.90;;
20743;SDS011;56303;52.160;-0.428;2023-04-08T06:55:50;46.10;;;22.17;;
20743;SDS011;56303;52.160;-0.428;2023-04-08T06:58:17;78.70;;;31.57;;
20743;SDS011;56303;52.160;-0.428;2023-04-08T07:00:44;74.07;;;30.20;;
20743;SDS011;56303;52.160;-0.428;2023-04-08T07:03:11;55.00;;;25.37;;
20743;SDS011;56303;52.160;-0.428;2023-04-08T07:05:38;65.37;;;29.00;;
20743;SDS011;56303;52.160;-0.428;2023-04-08T07:08:07;33.43;;;23.13;;
20743;SDS011;56303;52.160;-0.428;2023-04-08T07:10:34;37.47;;;25.70;;
20743;SDS011;56303;52.160;-0.428;2023-04-08T07:13:01;43.50;;;24.37;;
20743;SDS011;56303;52.160;-0.428;2023-04-08T07:15:29;33.20;;;23.67;;
20743;SDS011;56303;52.160;-0.428;2023-04-08T07:17:56;37.37;;;24.60;;
20743;SDS011;56303;52.160;-0.428;2023-04-08T07:20:24;36.27;;;24.90;;
20743;SDS011;56303;52.160;-0.428;2023-04-08T07:22:51;35.50;;;23.27;;
20743;SDS011;56303;52.160;-0.428;2023-04-08T07:25:18;31.73;;;21.97;;
20743;SDS011;56303;52.160;-0.428;2023-04-08T07:27:44;34.97;;;25.67;;
20743;SDS011;56303;52.160;-0.428;2023-04-08T07:30:12;34.47;;;23.67;;
20743;SDS011;56303;52.160;-0.428;2023-04-08T07:32:39;36.13;;;22.73;;
20743;SDS011;56303;52.160;-0.428;2023-04-08T07:35:06;41.90;;;26.83;;
20743;SDS011;56303;52.160;-0.428;2023-04-08T07:37:33;44.60;;;28.00;;
20743;SDS011;56303;52.160;-0.428;2023-04-08T07:40:00;38.63;;;25.63;;
20743;SDS011;56303;52.160;-0.428;2023-04-08T07:42:27;35.37;;;24.20;;
20743;SDS011;56303;52.160;-0.428;2023-04-08T07:44:54;33.93;;;23.80;;
20743;SDS011;56303;52.160;-0.428;2023-04-08T07:47:21;33.73;;;24.83;;
20743;SDS011;56303;52.160;-0.428;2023-04-08T07:49:48;37.33;;;26.47;;
20743;SDS011;56303;52.160;-0.428;2023-04-08T07:52:15;34.90;;;25.60;;
20743;SDS011;56303;52.160;-0.428;2023-04-08T07:54:42;27.47;;;22.23;;
20743;SDS011;56303;52.160;-0.428;2023-04-08T07:57:09;28.70;;;22.77;;
20743;SDS011;56303;52.160;-0.428;2023-04-08T07:59:36;27.97;;;21.63;;
20743;SDS011;56303;52.160;-0.428;2023-04-08T08:02:05;28.93;;;22.50;;
20743;SDS011;56303;52.160;-0.428;2023-04-08T08:04:32;29.97;;;23.37;;
20743;SDS011;56303;52.160;-0.428;2023-04-08T08:06:59;38.20;;;26.40;;
20743;SDS011;56303;52.160;-0.428;2023-04-08T08:09:26;37.47;;;26.73;;
20743;SDS011;56303;52.160;-0.428;2023-04-08T08:11:55;32.43;;;24.60;;
20743;SDS011;56303;52.160;-0.428;2023-04-08T08:14:22;35.13;;;25.27;;
20743;SDS011;56303;52.160;-0.428;2023-04-08T08:16:50;27.80;;;23.20;;
20743;SDS011;56303;52.160;-0.428;2023-04-08T08:19:19;28.50;;;23.40;;
20743;SDS011;56303;52.160;-0.428;2023-04-08T08:21:46;29.13;;;23.60;;
20743;SDS011;56303;52.160;-0.428;2023-04-08T08:24:14;28.37;;;21.83;;
20743;SDS011;56303;52.160;-0.428;2023-04-08T08:26:41;28.50;;;24.23;;
20743;SDS011;56303;52.160;-0.428;2023-04-08T08:29:10;28.33;;;23.33;;
20743;SDS011;56303;52.160;-0.428;2023-04-08T08:31:37;28.07;;;22.33;;
20743;SDS011;56303;52.160;-0.428;2023-04-08T08:34:04;24.50;;;21.83;;
20743;SDS011;56303;52.160;-0.428;2023-04-08T08:36:31;26.97;;;21.40;;
20743;SDS011;56303;52.160;-0.428;2023-04-08T08:39:00;25.73;;;19.70;;
20743;SDS011;56303;52.160;-0.428;2023-04-08T08:41:31;23.40;;;19.57;;
20743;SDS011;56303;52.160;-0.428;2023-04-08T08:43:59;24.70;;;21.73;;
20743;SDS011;56303;52.160;-0.428;2023-04-08T08:46:28;22.93;;;20.17;;
20743;SDS011;56303;52.160;-0.428;2023-04-08T08:48:55;25.17;;;19.30;;
20743;SDS011;56303;52.160;-0.428;2023-04-08T08:51:23;21.67;;;19.33;;
20743;SDS011;56303;52.160;-0.428;2023-04-08T08:53:50;23.43;;;20.53;;
20743;SDS011;56303;52.160;-0.428;2023-04-08T08:56:17;24.03;;;20.30;;
20743;SDS011;56303;52.160;-0.428;2023-04-08T08:58:44;23.07;;;18.97;;
20743;SDS011;56303;52.160;-0.428;2023-04-08T09:01:29;21.10;;;18.43;;
20743;SDS011;56303;52.160;-0.428;2023-04-08T09:06:39;22.60;;;20.10;;
20743;SDS011;56303;52.160;-0.428;2023-04-08T09:09:06;23.47;;;18.67;;
20743;SDS011;56303;52.160;-0.428;2023-04-08T09:11:37;20.97;;;18.73;;
20743;SDS011;56303;52.160;-0.428;2023-04-08T09:14:21;22.77;;;20.20;;
20743;SDS011;56303;52.160;-0.428;2023-04-08T09:16:50;22.77;;;18.70;;
20743;SDS011;56303;52.160;-0.428;2023-04-08T09:19:18;24.00;;;20.83;;
20743;SDS011;56303;52.160;-0.428;2023-04-08T09:21:46;22.83;;;18.70;;
20743;SDS011;56303;52.160;-0.428;2023-04-08T09:24:38;21.00;;;18.40;;
20743;SDS011;56303;52.160;-0.428;2023-04-08T09:27:05;20.43;;;18.23;;
20743;SDS011;56303;52.160;-0.428;2023-04-08T09:29:32;20.50;;;18.30;;
20743;SDS011;56303;52.160;-0.428;2023-04-08T09:32:05;18.77;;;16.70;;
20743;SDS011;56303;52.160;-0.428;2023-04-08T09:34:37;19.83;;;15.53;;
20743;SDS011;56303;52.160;-0.428;2023-04-08T09:37:05;20.23;;;16.23;;
20743;SDS011;56303;52.160;-0.428;2023-04-08T09:39:32;20.13;;;17.47;;
20743;SDS011;56303;52.160;-0.428;2023-04-08T09:41:59;20.33;;;17.87;;
20743;SDS011;56303;52.160;-0.428;2023-04-08T09:44:29;17.70;;;15.80;;
20743;SDS011;56303;52.160;-0.428;2023-04-08T09:47:00;17.47;;;15.60;;
20743;SDS011;56303;52.160;-0.428;2023-04-08T09:49:37;17.30;;;13.10;;
20743;SDS011;56303;52.160;-0.428;2023-04-08T09:52:13;17.00;;;13.60;;
20743;SDS011;56303;52.160;-0.428;2023-04-08T10:00:12;16.47;;;14.83;;
20743;SDS011;56303;52.160;-0.428;2023-04-08T10:02:54;16.97;;;14.43;;
20743;SDS011;56303;52.160;-0.428;2023-04-08T10:05:35;12.93;;;11.57;;
20743;SDS011;56303;52.160;-0.428;2023-04-08T10:08:04;15.60;;;10.80;;
20743;SDS011;56303;52.160;-0.428;2023-04-08T10:10:37;14.17;;;11.90;;
20743;SDS011;56303;52.160;-0.428;2023-04-08T10:13:06;14.97;;;12.27;;
20743;SDS011;56303;52.160;-0.428;2023-04-08T10:15:33;14.03;;;11.97;;
20743;SDS011;56303;52.160;-0.428;2023-04-08T10:23:09;9.03;;;7.40;;
20743;SDS011;56303;52.160;-0.428;2023-04-08T10:25:40;12.20;;;8.97;;
20743;SDS011;56303;52.160;-0.428;2023-04-08T10:30:45;11.87;;;8.80;;
20743;SDS011;56303;52.160;-0.428;2023-04-08T10:35:46;12.10;;;9.87;;
20743;SDS011;56303;52.160;-0.428;2023-04-08T10:38:14;11.73;;;9.60;;
20743;SDS011;56303;52.160;-0.428;2023-04-08T10:40:47;13.00;;;11.10;;
20743;SDS011;56303;52.160;-0.428;2023-04-08T10:43:15;11.37;;;9.83;;
20743;SDS011;56303;52.160;-0.428;2023-04-08T10:45:42;12.67;;;10.67;;
20743;SDS011;56303;52.160;-0.428;2023-04-08T10:50:44;13.00;;;11.13;;
20743;SDS011;56303;52.160;-0.428;2023-04-08T10:53:22;13.40;;;11.83;;
20743;SDS011;56303;52.160;-0.428;2023-04-08T10:55:54;12.37;;;11.07;;
20743;SDS011;56303;52.160;-0.428;2023-04-08T10:58:50;13.63;;;10.60;;
20743;SDS011;56303;52.160;-0.428;2023-04-08T11:01:18;12.97;;;10.60;;
20743;SDS011;56303;52.160;-0.428;2023-04-08T11:03:45;14.30;;;10.87;;
20743;SDS011;56303;52.160;-0.428;2023-04-08T11:06:12;13.00;;;11.30;;
20743;SDS011;56303;52.160;-0.428;2023-04-08T11:08:39;11.23;;;10.00;;
20743;SDS011;56303;52.160;-0.428;2023-04-08T11:11:06;13.83;;;11.27;;
20743;SDS011;56303;52.160;-0.428;2023-04-08T11:13:35;14.73;;;11.70;;
20743;SDS011;56303;52.160;-0.428;2023-04-08T11:16:16;10.73;;;9.03;;
20743;SDS011;56303;52.160;-0.428;2023-04-08T11:18:45;12.80;;;9.30;;
20743;SDS011;56303;52.160;-0.428;2023-04-08T11:21:13;11.20;;;9.20;;
20743;SDS011;56303;52.160;-0.428;2023-04-08T11:23:41;13.00;;;9.10;;
20743;SDS011;56303;52.160;-0.428;2023-04-08T11:26:09;12.00;;;8.97;;
20743;SDS011;56303;52.160;-0.428;2023-04-08T11:28:36;10.23;;;8.37;;
20743;SDS011;56303;52.160;-0.428;2023-04-08T11:31:06;11.23;;;8.77;;
20743;SDS011;56303;52.160;-0.428;2023-04-08T11:33:34;10.63;;;9.50;;
20743;SDS011;56303;52.160;-0.428;2023-04-08T11:36:01;10.20;;;8.00;;
20743;SDS011;56303;52.160;-0.428;2023-04-08T11:38:31;10.27;;;8.17;;
20743;SDS011;56303;52.160;-0.428;2023-04-08T11:40:58;10.50;;;7.20;;
20743;SDS011;56303;52.160;-0.428;2023-04-08T11:43:25;10.53;;;8.13;;
20743;SDS011;56303;52.160;-0.428;2023-04-08T11:45:53;12.17;;;8.37;;
20743;SDS011;56303;52.160;-0.428;2023-04-08T11:48:21;11.07;;;7.97;;
20743;SDS011;56303;52.160;-0.428;2023-04-08T11:51:00;9.63;;;7.80;;
20743;SDS011;56303;52.160;-0.428;2023-04-08T11:53:30;8.40;;;6.40;;
20743;SDS011;56303;52.160;-0.428;2023-04-08T11:55:57;11.27;;;8.23;;
20743;SDS011;56303;52.160;-0.428;2023-04-08T11:58:41;8.43;;;6.53;;
20743;SDS011;56303;52.160;-0.428;2023-04-08T12:01:08;6.93;;;6.23;;
20743;SDS011;56303;52.160;-0.428;2023-04-08T12:03:35;9.70;;;7.57;;
20743;SDS011;56303;52.160;-0.428;2023-04-08T12:06:02;7.63;;;6.73;;
20743;SDS011;56303;52.160;-0.428;2023-04-08T12:08:33;8.97;;;7.50;;
20743;SDS011;56303;52.160;-0.428;2023-04-08T12:11:00;7.47;;;6.53;;
20743;SDS011;56303;52.160;-0.428;2023-04-08T12:13:44;9.27;;;6.80;;
20743;SDS011;56303;52.160;-0.428;2023-04-08T12:16:10;9.13;;;6.43;;
20743;SDS011;56303;52.160;-0.428;2023-04-08T12:18:37;7.87;;;6.73;;
20743;SDS011;56303;52.160;-0.428;2023-04-08T12:21:04;8.87;;;6.17;;
20743;SDS011;56303;52.160;-0.428;2023-04-08T12:23:31;9.87;;;7.07;;
20743;SDS011;56303;52.160;-0.428;2023-04-08T12:25:58;8.80;;;7.17;;
20743;SDS011;56303;52.160;-0.428;2023-04-08T12:28:25;9.67;;;6.80;;
20743;SDS011;56303;52.160;-0.428;2023-04-08T12:30:51;8.03;;;5.87;;
20743;SDS011;56303;52.160;-0.428;2023-04-08T12:33:18;8.90;;;6.43;;
20743;SDS011;56303;52.160;-0.428;2023-04-08T12:35:45;7.23;;;6.00;;
20743;SDS011;56303;52.160;-0.428;2023-04-08T12:38:13;7.37;;;5.80;;
20743;SDS011;56303;52.160;-0.428;2023-04-08T12:40:40;7.60;;;6.10;;
20743;SDS011;56303;52.160;-0.428;2023-04-08T12:43:07;6.73;;;5.77;;
20743;SDS011;56303;52.160;-0.428;2023-04-08T12:45:34;9.20;;;6.53;;
20743;SDS011;56303;52.160;-0.428;2023-04-08T12:48:01;7.97;;;5.70;;
20743;SDS011;56303;52.160;-0.428;2023-04-08T12:50:28;8.10;;;6.40;;
20743;SDS011;56303;52.160;-0.428;2023-04-08T12:52:55;6.87;;;5.63;;
20743;SDS011;56303;52.160;-0.428;2023-04-08T12:55:23;7.73;;;5.90;;
20743;SDS011;56303;52.160;-0.428;2023-04-08T12:57:51;7.43;;;5.67;;
20743;SDS011;56303;52.160;-0.428;2023-04-08T13:00:18;6.97;;;5.60;;
20743;SDS011;56303;52.160;-0.428;2023-04-08T13:02:45;9.03;;;6.23;;
20743;SDS011;56303;52.160;-0.428;2023-04-08T13:05:12;8.83;;;6.17;;
20743;SDS011;56303;52.160;-0.428;2023-04-08T13:07:38;6.17;;;5.10;;
20743;SDS011;56303;52.160;-0.428;2023-04-08T13:10:06;6.87;;;5.20;;
20743;SDS011;56303;52.160;-0.428;2023-04-08T13:12:33;6.50;;;4.93;;
20743;SDS011;56303;52.160;-0.428;2023-04-08T13:15:00;8.53;;;5.80;;
20743;SDS011;56303;52.160;-0.428;2023-04-08T13:17:27;7.47;;;5.23;;
20743;SDS011;56303;52.160;-0.428;2023-04-08T13:19:54;6.03;;;4.73;;
20743;SDS011;56303;52.160;-0.428;2023-04-08T13:22:21;6.53;;;4.40;;
20743;SDS011;56303;52.160;-0.428;2023-04-08T13:24:48;6.17;;;4.93;;
20743;SDS011;56303;52.160;-0.428;2023-04-08T13:27:14;5.03;;;4.30;;
20743;SDS011;56303;52.160;-0.428;2023-04-08T13:29:42;5.50;;;4.33;;
20743;SDS011;56303;52.160;-0.428;2023-04-08T13:32:09;5.47;;;3.87;;
20743;SDS011;56303;52.160;-0.428;2023-04-08T13:34:36;6.50;;;3.97;;
20743;SDS011;56303;52.160;-0.428;2023-04-08T13:37:03;6.03;;;4.30;;
20743;SDS011;56303;52.160;-0.428;2023-04-08T13:39:30;4.90;;;3.80;;
20743;SDS011;56303;52.160;-0.428;2023-04-08T13:41:57;5.27;;;4.10;;
20743;SDS011;56303;52.160;-0.428;2023-04-08T13:44:24;6.73;;;3.90;;
20743;SDS011;56303;52.160;-0.428;2023-04-08T13:46:51;7.57;;;4.70;;
20743;SDS011;56303;52.160;-0.428;2023-04-08T13:49:18;5.07;;;4.27;;
20743;SDS011;56303;52.160;-0.428;2023-04-08T13:51:45;6.07;;;4.37;;
20743;SDS011;56303;52.160;-0.428;2023-04-08T13:54:12;7.40;;;3.77;;
20743;SDS011;56303;52.160;-0.428;2023-04-08T13:56:39;5.77;;;4.10;;
20743;SDS011;56303;52.160;-0.428;2023-04-08T13:59:06;6.90;;;4.03;;
20743;SDS011;56303;52.160;-0.428;2023-04-08T14:01:32;6.10;;;4.30;;
20743;SDS011;56303;52.160;-0.428;2023-04-08T14:03:59;5.73;;;4.37;;
20743;SDS011;56303;52.160;-0.428;2023-04-08T14:06:26;5.77;;;4.60;;
20743;SDS011;56303;52.160;-0.428;2023-04-08T14:08:53;6.63;;;4.53;;
20743;SDS011;56303;52.160;-0.428;2023-04-08T14:11:20;6.93;;;4.27;;
20743;SDS011;56303;52.160;-0.428;2023-04-08T14:13:47;4.87;;;3.93;;
20743;SDS011;56303;52.160;-0.428;2023-04-08T14:16:14;5.57;;;3.60;;
20743;SDS011;56303;52.160;-0.428;2023-04-08T14:18:41;5.23;;;3.60;;
20743;SDS011;56303;52.160;-0.428;2023-04-08T14:21:08;5.00;;;4.30;;
20743;SDS011;56303;52.160;-0.428;2023-04-08T14:23:35;6.97;;;5.23;;
20743;SDS011;56303;52.160;-0.428;2023-04-08T14:26:02;5.87;;;4.80;;
20743;SDS011;56303;52.160;-0.428;2023-04-08T14:28:29;7.20;;;4.53;;
20743;SDS011;56303;52.160;-0.428;2023-04-08T14:30:56;5.37;;;4.67;;
20743;SDS011;56303;52.160;-0.428;2023-04-08T14:33:23;6.83;;;4.83;;
20743;SDS011;56303;52.160;-0.428;2023-04-08T14:35:51;6.90;;;4.93;;
20743;SDS011;56303;52.160;-0.428;2023-04-08T14:38:18;6.13;;;4.40;;
20743;SDS011;56303;52.160;-0.428;2023-04-08T14:40:46;7.83;;;5.10;;
20743;SDS011;56303;52.160;-0.428;2023-04-08T14:43:13;8.67;;;5.27;;
20743;SDS011;56303;52.160;-0.428;2023-04-08T14:45:39;6.13;;;4.60;;
20743;SDS011;56303;52.160;-0.428;2023-04-08T14:48:07;7.63;;;4.77;;
20743;SDS011;56303;52.160;-0.428;2023-04-08T14:50:34;6.40;;;4.90;;
20743;SDS011;56303;52.160;-0.428;2023-04-08T14:53:01;7.10;;;4.40;;